Time;durP1;ratioP1;P1;durP2;ratioP2;P2;SDS_P1;SDS_P2;PMS_P1;PMS_P2;Temp;Humidity;BMP_temperature;BMP_pressure;BME280_temperature;BME280_humidity;BME280_pressure;Samples;Min_cycle;Max_cycle;Signal;HPM_P1;HPM_P2
2021/12/18 00:01:28;;;;;;;20.33;13.10;;;6.70;99.90;;;;;;4975511;28;20183;-79
2021/12/18 00:03:54;;;;;;;20.20;11.47;;;6.70;99.90;;;;;;4986431;28;20261;-79
2021/12/18 00:06:20;;;;;;;17.87;10.50;;;6.70;99.90;;;;;;4963606;28;20710;-79
2021/12/18 00:08:46;;;;;;;18.10;10.57;;;6.60;99.90;;;;;;4989922;28;20682;-79
2021/12/18 00:11:13;;;;;;;15.20;9.90;;;6.60;99.90;;;;;;4980744;28;20211;-81
2021/12/18 00:13:42;;;;;;;12.07;8.10;;;6.70;99.90;;;;;;4980520;28;20181;-79
2021/12/18 00:16:08;;;;;;;6.70;5.20;;;6.60;99.90;;;;;;4980948;28;20643;-80
2021/12/18 00:18:35;;;;;;;6.80;5.20;;;6.60;99.90;;;;;;4979917;28;20202;-80
2021/12/18 00:21:03;;;;;;;6.33;5.00;;;6.60;99.90;;;;;;4962618;28;20186;-80
2021/12/18 00:23:28;;;;;;;5.33;4.37;;;6.60;99.90;;;;;;4982421;28;20201;-78
2021/12/18 00:25:54;;;;;;;4.83;4.33;;;6.50;99.90;;;;;;4985113;28;20266;-79
2021/12/18 00:28:26;;;;;;;7.13;4.60;;;6.50;99.90;;;;;;4984076;28;20256;-79
2021/12/18 00:30:52;;;;;;;6.47;5.00;;;6.50;99.90;;;;;;4994049;28;20650;-79
2021/12/18 00:33:17;;;;;;;8.40;5.67;;;6.40;99.90;;;;;;4998186;28;20193;-79
2021/12/18 00:35:44;;;;;;;11.53;7.03;;;6.40;99.90;;;;;;4992641;28;20186;-79
2021/12/18 00:38:09;;;;;;;9.07;6.13;;;6.50;99.90;;;;;;5009102;28;20274;-80
2021/12/18 00:40:45;;;;;;;12.03;7.97;;;6.50;99.90;;;;;;5023924;28;20237;-80
2021/12/18 00:43:30;;;;;;;9.13;5.90;;;6.50;99.90;;;;;;5014768;28;20636;-80
2021/12/18 00:45:55;;;;;;;6.70;5.10;;;6.50;99.90;;;;;;5020576;28;20209;-79
2021/12/18 00:48:21;;;;;;;7.40;5.10;;;6.50;99.90;;;;;;5001544;28;20249;-79
2021/12/18 00:50:48;;;;;;;5.43;4.30;;;6.50;99.90;;;;;;5012539;28;20195;-80
2021/12/18 00:53:14;;;;;;;5.40;3.90;;;6.50;99.90;;;;;;5005006;28;20213;-79
2021/12/18 00:55:41;;;;;;;4.57;3.20;;;6.50;99.90;;;;;;4998870;28;20186;-80
2021/12/18 00:58:07;;;;;;;4.70;3.90;;;6.50;99.90;;;;;;5012275;28;20167;-79
2021/12/18 01:00:34;;;;;;;5.77;3.70;;;6.50;99.90;;;;;;5007658;28;20613;-79
2021/12/18 01:03:02;;;;;;;11.77;7.10;;;6.60;99.90;;;;;;5015232;28;20190;-79
2021/12/18 01:05:29;;;;;;;9.53;6.30;;;6.60;99.90;;;;;;5001345;28;20205;-78
2021/12/18 01:07:57;;;;;;;11.90;7.43;;;6.50;99.90;;;;;;5015291;28;20205;-78
2021/12/18 01:13:20;;;;;;;19.03;10.77;;;6.60;99.90;;;;;;5015513;28;20177;-79
2021/12/18 01:15:53;;;;;;;20.33;12.60;;;6.50;99.90;;;;;;5009633;28;20189;-79
2021/12/18 01:24:26;;;;;;;20.87;12.50;;;6.70;99.90;;;;;;5023709;28;20712;-78
2021/12/18 01:26:52;;;;;;;21.33;12.77;;;6.60;99.90;;;;;;5021816;28;20213;-78
2021/12/18 01:29:17;;;;;;;24.23;13.13;;;6.60;99.90;;;;;;5011401;28;20202;-79
2021/12/18 01:31:43;;;;;;;24.83;14.27;;;6.70;99.90;;;;;;5004151;28;20686;-79
2021/12/18 01:34:09;;;;;;;23.23;12.97;;;6.70;99.90;;;;;;5001839;28;20668;-79
2021/12/18 01:36:34;;;;;;;22.90;12.63;;;6.70;99.90;;;;;;5001135;28;20261;-78
2021/12/18 01:39:02;;;;;;;29.40;14.00;;;6.70;99.90;;;;;;5011253;28;20561;-79
2021/12/18 01:41:52;;;;;;;23.70;13.43;;;6.70;99.90;;;;;;5002946;28;20181;-78
2021/12/18 01:44:50;;;;;;;22.97;12.07;;;6.70;99.90;;;;;;5015107;28;20189;-79
2021/12/18 01:52:38;;;;;;;19.60;10.17;;;6.80;99.90;;;;;;5008213;28;20163;-79
2021/12/18 01:55:05;;;;;;;22.60;11.43;;;6.80;99.90;;;;;;5007716;28;20188;-79
2021/12/18 01:57:31;;;;;;;21.33;10.87;;;6.80;99.90;;;;;;5005564;28;20237;-79
2021/12/18 02:00:24;;;;;;;20.80;10.50;;;6.70;99.90;;;;;;5006099;28;20194;-78
2021/12/18 02:02:50;;;;;;;18.37;9.03;;;6.80;99.90;;;;;;5011923;28;20170;-79
2021/12/18 02:05:16;;;;;;;19.63;9.40;;;6.80;99.90;;;;;;4996608;28;20206;-79
2021/12/18 02:07:44;;;;;;;18.93;10.83;;;6.80;99.90;;;;;;5007871;28;20281;-79
2021/12/18 02:10:18;;;;;;;21.37;10.60;;;6.70;99.90;;;;;;4996537;28;20209;-80
2021/12/18 02:13:04;;;;;;;20.50;9.93;;;6.70;99.90;;;;;;5002031;28;20179;-79
2021/12/18 02:21:17;;;;;;;19.70;10.17;;;6.70;99.90;;;;;;5025228;28;20246;-81
2021/12/18 02:23:43;;;;;;;14.53;8.57;;;6.70;99.90;;;;;;5023612;28;20511;-80
2021/12/18 02:26:09;;;;;;;14.70;8.93;;;6.90;99.90;;;;;;5013985;28;20248;-80
2021/12/18 02:28:35;;;;;;;18.40;9.27;;;6.90;99.90;;;;;;5043146;28;20198;-80
2021/12/18 02:31:02;;;;;;;13.33;8.47;;;6.90;99.90;;;;;;5011074;28;20244;-80
2021/12/18 02:33:28;;;;;;;15.80;8.67;;;6.80;99.90;;;;;;5007922;28;20205;-80
2021/12/18 02:35:56;;;;;;;15.20;8.63;;;6.70;99.90;;;;;;5012812;28;20251;-80
2021/12/18 02:38:59;;;;;;;18.30;8.97;;;6.70;99.90;;;;;;5008218;28;20190;-80
2021/12/18 02:41:39;;;;;;;15.50;7.63;;;6.80;99.90;;;;;;5005210;28;20817;-80
2021/12/18 02:44:10;;;;;;;13.23;6.77;;;6.80;99.90;;;;;;5007748;28;20209;-80
2021/12/18 02:46:37;;;;;;;12.13;5.90;;;6.80;99.90;;;;;;5034867;28;20202;-80
2021/12/18 02:49:13;;;;;;;14.50;7.97;;;6.70;99.90;;;;;;5014548;28;20204;-80
2021/12/18 02:51:39;;;;;;;13.90;7.27;;;6.70;99.90;;;;;;5023786;28;20262;-78
2021/12/18 02:54:06;;;;;;;12.03;7.50;;;6.80;99.90;;;;;;5004154;28;20270;-80
2021/12/18 02:56:32;;;;;;;12.77;6.10;;;6.70;99.90;;;;;;5002695;28;20229;-78
2021/12/18 02:59:05;;;;;;;12.30;6.73;;;6.80;99.90;;;;;;5012855;28;20222;-79
2021/12/18 03:01:32;;;;;;;14.50;7.90;;;6.70;99.90;;;;;;5019976;28;20173;-79
2021/12/18 03:03:59;;;;;;;13.97;6.87;;;6.70;99.90;;;;;;5007245;28;20632;-79
2021/12/18 03:06:33;;;;;;;14.83;8.03;;;6.70;99.90;;;;;;5017991;28;20206;-79
2021/12/18 03:25:31;;;;;;;16.30;9.40;;;6.80;99.90;;;;;;5020314;28;20530;-79
2021/12/18 03:28:00;;;;;;;19.00;9.87;;;6.80;99.90;;;;;;5015281;28;20592;-78
2021/12/18 03:30:27;;;;;;;17.63;9.73;;;6.80;99.90;;;;;;5009709;28;20194;-79
2021/12/18 03:32:53;;;;;;;17.07;8.70;;;6.80;99.90;;;;;;5007666;28;20218;-79
2021/12/18 03:35:19;;;;;;;15.03;7.93;;;6.70;99.90;;;;;;5006483;28;20182;-78
2021/12/18 03:37:45;;;;;;;18.27;9.33;;;6.80;99.90;;;;;;5008042;28;20323;-81
2021/12/18 03:40:17;;;;;;;12.60;6.50;;;6.80;99.90;;;;;;5007712;28;20232;-79
2021/12/18 03:42:44;;;;;;;12.53;6.20;;;6.80;99.90;;;;;;5006363;28;20254;-78
2021/12/18 03:45:10;;;;;;;10.43;5.93;;;6.80;99.90;;;;;;4993842;28;20199;-78
2021/12/18 03:47:37;;;;;;;10.07;5.40;;;6.80;99.90;;;;;;5010436;28;20490;-78
2021/12/18 03:50:28;;;;;;;8.07;4.57;;;6.70;99.90;;;;;;4997957;28;20198;-78
2021/12/18 03:52:55;;;;;;;8.93;5.37;;;6.70;99.90;;;;;;4998595;28;20188;-79
2021/12/18 03:55:29;;;;;;;10.97;5.40;;;6.70;99.90;;;;;;4999647;28;20285;-79
2021/12/18 03:57:55;;;;;;;10.57;5.73;;;6.70;99.90;;;;;;5015854;28;20638;-80
2021/12/18 04:00:21;;;;;;;13.70;6.27;;;6.70;99.90;;;;;;5013875;28;20203;-79
2021/12/18 04:02:47;;;;;;;9.57;5.50;;;6.70;99.90;;;;;;5016262;28;20207;-80
2021/12/18 04:05:24;;;;;;;12.70;5.80;;;6.80;99.90;;;;;;5023100;28;20269;-79
2021/12/18 04:08:08;;;;;;;12.77;5.93;;;6.70;99.90;;;;;;5032119;28;20177;-80
2021/12/18 04:10:38;;;;;;;11.47;5.80;;;6.80;99.90;;;;;;5009474;28;20205;-79
2021/12/18 04:13:07;;;;;;;10.60;5.23;;;6.80;99.90;;;;;;5012436;28;20171;-79
2021/12/18 04:15:37;;;;;;;9.67;5.40;;;6.90;99.90;;;;;;5006022;28;20247;-79
2021/12/18 04:18:03;;;;;;;8.73;4.70;;;6.90;99.90;;;;;;5020493;28;20198;-79
2021/12/18 04:20:29;;;;;;;8.57;4.53;;;6.90;99.90;;;;;;5013252;28;20202;-79
2021/12/18 04:22:56;;;;;;;8.47;5.00;;;6.80;99.90;;;;;;5035318;28;20192;-79
2021/12/18 04:25:21;;;;;;;11.37;6.17;;;6.80;99.90;;;;;;5002995;28;20210;-79
2021/12/18 04:27:53;;;;;;;11.23;6.10;;;6.80;99.90;;;;;;5004126;28;20249;-79
2021/12/18 04:30:21;;;;;;;11.80;6.10;;;6.80;99.90;;;;;;5027408;28;20194;-80
2021/12/18 04:32:47;;;;;;;14.53;6.73;;;6.80;99.90;;;;;;5013963;28;20229;-79
2021/12/18 04:35:12;;;;;;;10.43;5.80;;;6.80;99.90;;;;;;4993619;28;20182;-80
2021/12/18 04:37:44;;;;;;;11.13;5.97;;;6.80;99.90;;;;;;5017881;28;20179;-79
2021/12/18 04:40:11;;;;;;;9.93;5.20;;;6.80;99.90;;;;;;5024747;28;20662;-79
2021/12/18 04:42:36;;;;;;;10.70;5.70;;;6.80;99.90;;;;;;5005250;28;20568;-79
2021/12/18 04:45:03;;;;;;;10.70;5.83;;;6.80;99.90;;;;;;5011129;28;20175;-79
2021/12/18 04:47:29;;;;;;;8.83;6.00;;;6.80;99.90;;;;;;5013376;28;20272;-80
2021/12/18 04:49:55;;;;;;;7.37;4.53;;;6.80;99.90;;;;;;5006944;28;20225;-80
2021/12/18 04:52:25;;;;;;;6.77;4.17;;;6.80;99.90;;;;;;5015055;28;20186;-80
2021/12/18 04:54:51;;;;;;;5.50;3.60;;;6.80;99.90;;;;;;5006737;28;20215;-80
2021/12/18 04:57:17;;;;;;;6.73;3.73;;;6.80;99.90;;;;;;5006704;28;20193;-79
2021/12/18 04:59:45;;;;;;;6.37;3.83;;;6.80;99.90;;;;;;5008126;28;20201;-80
2021/12/18 05:02:15;;;;;;;6.17;3.27;;;6.80;99.90;;;;;;5009018;28;20175;-79
2021/12/18 05:04:41;;;;;;;5.60;3.47;;;6.70;99.90;;;;;;5002748;28;20653;-79
2021/12/18 05:07:06;;;;;;;5.63;3.30;;;6.70;99.90;;;;;;5012345;28;20217;-79
2021/12/18 05:09:32;;;;;;;5.23;3.20;;;6.70;99.90;;;;;;5009105;28;20191;-79
2021/12/18 05:11:58;;;;;;;3.67;2.60;;;6.80;99.90;;;;;;5007315;28;20229;-80
2021/12/18 05:14:24;;;;;;;5.00;2.90;;;6.70;99.90;;;;;;5031690;28;20185;-80
2021/12/18 05:16:50;;;;;;;4.10;2.47;;;6.70;99.90;;;;;;5000218;28;20228;-80
2021/12/18 05:19:17;;;;;;;4.40;2.73;;;6.70;99.90;;;;;;5016059;28;20516;-80
2021/12/18 05:21:42;;;;;;;5.47;3.00;;;6.70;99.90;;;;;;5009091;28;20185;-79
2021/12/18 05:24:08;;;;;;;4.70;3.23;;;6.70;99.90;;;;;;5000011;28;20181;-79
2021/12/18 05:26:34;;;;;;;4.30;2.70;;;6.80;99.90;;;;;;5013581;28;20206;-78
2021/12/18 05:28:59;;;;;;;4.07;2.70;;;6.70;99.90;;;;;;5007025;28;20367;-79
2021/12/18 05:31:27;;;;;;;5.43;3.20;;;6.70;99.90;;;;;;5010791;28;20207;-79
2021/12/18 05:33:58;;;;;;;6.27;2.53;;;6.70;99.90;;;;;;5022650;28;20190;-79
2021/12/18 05:38:55;;;;;;;4.83;2.90;;;6.60;99.90;;;;;;5023333;28;20202;-79
2021/12/18 05:41:21;;;;;;;5.20;2.87;;;6.60;99.90;;;;;;5026539;28;20252;-79
2021/12/18 05:43:47;;;;;;;3.33;2.40;;;6.50;99.90;;;;;;5015658;28;20181;-79
2021/12/18 05:46:44;;;;;;;5.47;3.27;;;6.50;99.90;;;;;;5014159;28;20204;-79
2021/12/18 05:49:11;;;;;;;3.97;2.83;;;6.50;99.90;;;;;;5012639;28;20208;-80
2021/12/18 05:51:40;;;;;;;4.53;3.17;;;6.40;99.90;;;;;;4999624;28;20694;-80
2021/12/18 05:54:06;;;;;;;4.67;2.60;;;6.50;99.90;;;;;;5007863;28;20256;-80
2021/12/18 05:56:33;;;;;;;4.10;2.37;;;6.40;99.90;;;;;;5009729;28;20182;-79
2021/12/18 05:58:59;;;;;;;4.10;2.27;;;6.40;99.90;;;;;;5013962;28;20197;-80
2021/12/18 06:01:25;;;;;;;3.70;2.60;;;6.40;99.90;;;;;;5005142;28;20197;-80
2021/12/18 06:03:51;;;;;;;3.20;2.10;;;6.50;99.90;;;;;;5013272;28;21097;-80
2021/12/18 06:06:17;;;;;;;3.73;2.40;;;6.50;99.90;;;;;;5051912;28;20216;-79
2021/12/18 06:08:42;;;;;;;3.53;2.33;;;6.50;99.90;;;;;;5028589;28;20551;-80
2021/12/18 06:11:16;;;;;;;3.97;1.70;;;6.50;99.90;;;;;;5018831;28;20173;-79
2021/12/18 06:13:42;;;;;;;3.37;2.00;;;6.40;99.90;;;;;;5016938;28;20171;-79
2021/12/18 06:16:08;;;;;;;3.87;2.20;;;6.40;99.90;;;;;;5006977;28;20217;-79
2021/12/18 06:18:36;;;;;;;4.33;2.40;;;6.50;99.90;;;;;;5020422;28;20181;-79
2021/12/18 06:21:03;;;;;;;3.63;2.27;;;6.50;99.90;;;;;;5034511;28;20177;-79
2021/12/18 06:23:29;;;;;;;5.00;3.17;;;6.50;99.90;;;;;;5009480;28;20190;-78
2021/12/18 06:25:56;;;;;;;5.90;3.53;;;6.50;99.90;;;;;;5022137;28;20222;-79
2021/12/18 06:28:22;;;;;;;5.67;3.30;;;6.50;99.90;;;;;;5017381;28;20182;-80
2021/12/18 06:30:50;;;;;;;6.10;3.13;;;6.60;99.90;;;;;;5029571;28;20178;-79
2021/12/18 06:33:17;;;;;;;5.03;3.30;;;6.60;99.90;;;;;;5009856;28;20177;-79
2021/12/18 06:35:42;;;;;;;5.73;4.20;;;6.60;99.90;;;;;;5026057;28;20182;-79
2021/12/18 06:38:08;;;;;;;4.87;3.83;;;6.60;99.90;;;;;;5019147;28;20177;-79
2021/12/18 06:40:34;;;;;;;4.70;3.43;;;6.60;99.90;;;;;;5016876;28;20202;-79
2021/12/18 06:43:02;;;;;;;3.87;3.20;;;6.60;99.90;;;;;;5022116;28;20213;-79
2021/12/18 06:45:28;;;;;;;2.80;2.60;;;6.50;99.90;;;;;;5029869;28;20285;-79
2021/12/18 06:47:54;;;;;;;2.83;2.50;;;6.50;99.90;;;;;;5027356;28;20232;-80
2021/12/18 06:50:24;;;;;;;4.40;2.90;;;6.50;99.90;;;;;;5011120;28;20245;-80
2021/12/18 06:52:50;;;;;;;4.63;3.00;;;6.60;99.90;;;;;;5010593;28;20609;-80
2021/12/18 06:55:16;;;;;;;4.00;3.17;;;6.60;99.90;;;;;;5030429;28;20173;-80
2021/12/18 06:57:42;;;;;;;3.80;2.80;;;6.60;99.90;;;;;;5028247;28;20245;-80
2021/12/18 07:00:12;;;;;;;3.00;2.70;;;6.60;99.90;;;;;;5020906;28;20197;-79
2021/12/18 07:02:38;;;;;;;3.53;2.80;;;6.60;99.90;;;;;;5016065;28;20598;-80
2021/12/18 07:05:05;;;;;;;3.30;2.93;;;6.60;99.90;;;;;;5020895;28;20258;-80
2021/12/18 07:07:31;;;;;;;3.40;2.60;;;6.70;99.90;;;;;;5013049;28;20205;-80
2021/12/18 07:09:57;;;;;;;2.47;2.27;;;6.60;99.90;;;;;;5011325;28;20205;-80
2021/12/18 07:12:23;;;;;;;4.03;2.83;;;6.60;99.90;;;;;;5016118;28;20260;-81
2021/12/18 07:14:48;;;;;;;3.53;2.97;;;6.70;99.90;;;;;;5017459;28;20274;-80
2021/12/18 07:17:20;;;;;;;3.47;2.83;;;6.70;99.90;;;;;;5010580;28;20201;-80
2021/12/18 07:19:46;;;;;;;3.27;2.97;;;6.60;99.90;;;;;;5028311;28;20202;-79
2021/12/18 07:22:12;;;;;;;3.33;2.83;;;6.60;99.90;;;;;;5007320;28;20174;-81
2021/12/18 07:24:40;;;;;;;4.47;3.30;;;6.60;99.90;;;;;;5013698;28;20186;-79
2021/12/18 07:27:05;;;;;;;4.57;3.50;;;6.60;99.90;;;;;;5029532;28;20202;-79
2021/12/18 07:29:31;;;;;;;4.03;3.63;;;6.60;99.90;;;;;;5018785;28;20570;-80
2021/12/18 07:31:57;;;;;;;5.40;3.83;;;6.60;99.90;;;;;;5016200;28;20200;-80
2021/12/18 07:34:23;;;;;;;4.90;3.80;;;6.60;99.90;;;;;;5010344;28;20236;-80
2021/12/18 07:36:49;;;;;;;6.10;4.50;;;6.60;99.90;;;;;;5007546;28;20524;-80
2021/12/18 07:39:16;;;;;;;5.87;4.70;;;6.60;99.90;;;;;;5008559;28;20284;-80
2021/12/18 07:41:42;;;;;;;5.73;4.20;;;6.60;99.90;;;;;;5029383;28;20183;-80
2021/12/18 07:44:08;;;;;;;7.67;4.30;;;6.60;99.90;;;;;;5013409;28;20228;-80
2021/12/18 07:46:35;;;;;;;6.13;3.97;;;6.60;99.90;;;;;;5027003;28;20551;-80
2021/12/18 07:49:05;;;;;;;6.40;4.13;;;6.60;99.90;;;;;;5018832;28;20202;-80
2021/12/18 07:51:31;;;;;;;5.27;4.00;;;6.60;99.90;;;;;;5026837;28;20189;-80
2021/12/18 07:53:57;;;;;;;5.20;3.67;;;6.60;99.90;;;;;;5000979;28;20239;-80
2021/12/18 07:56:29;;;;;;;5.47;3.90;;;6.60;99.90;;;;;;5015745;28;20175;-80
2021/12/18 07:58:55;;;;;;;5.60;3.83;;;6.60;99.90;;;;;;5010201;28;20198;-80
2021/12/18 08:01:22;;;;;;;8.17;4.97;;;6.60;99.90;;;;;;5013257;28;20183;-80
2021/12/18 08:03:48;;;;;;;5.23;4.10;;;6.70;99.90;;;;;;5016651;28;20202;-80
2021/12/18 08:06:23;;;;;;;6.23;4.30;;;6.60;99.90;;;;;;5010792;28;20217;-80
2021/12/18 08:08:50;;;;;;;6.73;3.90;;;6.60;99.90;;;;;;5036505;28;20665;-80
2021/12/18 08:11:16;;;;;;;6.07;3.90;;;6.60;99.90;;;;;;5018210;28;20205;-80
2021/12/18 08:13:42;;;;;;;6.87;4.20;;;6.60;99.90;;;;;;5021405;28;20170;-80
2021/12/18 08:16:08;;;;;;;7.53;4.63;;;6.60;99.90;;;;;;5020791;28;20714;-80
2021/12/18 08:18:37;;;;;;;8.07;5.17;;;6.60;99.90;;;;;;5008435;28;20180;-80
2021/12/18 08:21:04;;;;;;;8.73;5.30;;;6.60;99.90;;;;;;5011760;28;20587;-80
2021/12/18 08:23:45;;;;;;;7.47;4.90;;;6.60;99.90;;;;;;5012557;28;20495;-80
2021/12/18 08:26:10;;;;;;;7.80;5.20;;;6.60;99.90;;;;;;5013993;28;20202;-79
2021/12/18 08:28:36;;;;;;;6.53;4.50;;;6.60;99.90;;;;;;5018233;28;20232;-79
2021/12/18 08:31:02;;;;;;;5.93;4.03;;;6.60;99.90;;;;;;5015630;28;20639;-79
2021/12/18 08:33:28;;;;;;;7.97;4.23;;;6.60;99.90;;;;;;5014220;28;20221;-80
2021/12/18 08:35:54;;;;;;;4.50;3.53;;;6.60;99.90;;;;;;5029259;28;20194;-80
2021/12/18 08:38:20;;;;;;;4.37;2.80;;;6.70;99.90;;;;;;5023847;28;20682;-81
2021/12/18 08:40:47;;;;;;;5.27;3.17;;;6.60;99.90;;;;;;5014419;28;20246;-80
2021/12/18 08:43:13;;;;;;;3.83;3.03;;;6.60;99.90;;;;;;5023594;28;20194;-81
2021/12/18 08:45:39;;;;;;;5.27;2.67;;;6.70;99.90;;;;;;5022005;28;20237;-80
2021/12/18 08:48:05;;;;;;;2.47;1.97;;;6.70;99.90;;;;;;5023883;28;20248;-80
2021/12/18 08:50:32;;;;;;;2.20;1.97;;;6.70;99.90;;;;;;5015982;28;20197;-80
2021/12/18 08:52:57;;;;;;;3.33;2.37;;;6.70;99.90;;;;;;5015283;28;20243;-80
2021/12/18 08:55:24;;;;;;;3.43;2.10;;;6.70;99.90;;;;;;5020834;28;20175;-80
2021/12/18 08:57:51;;;;;;;2.63;1.97;;;6.70;99.90;;;;;;5030590;28;20256;-80
2021/12/18 09:00:24;;;;;;;3.13;2.10;;;6.70;99.90;;;;;;5029098;28;20197;-81
2021/12/18 09:02:54;;;;;;;4.43;3.20;;;6.70;99.90;;;;;;5005015;28;20184;-81
2021/12/18 09:05:21;;;;;;;4.33;3.33;;;6.70;99.90;;;;;;5033412;28;20179;-80
2021/12/18 09:07:46;;;;;;;4.17;3.20;;;6.70;99.90;;;;;;5014429;28;20178;-80
2021/12/18 09:10:15;;;;;;;2.73;2.40;;;6.70;99.90;;;;;;5020908;28;20267;-80
2021/12/18 09:12:43;;;;;;;3.70;2.70;;;6.60;99.90;;;;;;5036756;28;20149;-81
2021/12/18 09:15:09;;;;;;;4.07;2.60;;;6.60;99.90;;;;;;5013355;28;20182;-80
2021/12/18 09:17:35;;;;;;;3.57;2.60;;;6.60;99.90;;;;;;5001364;28;20179;-79
2021/12/18 09:20:04;;;;;;;3.73;2.43;;;6.50;99.90;;;;;;5005918;28;20589;-80
2021/12/18 09:22:30;;;;;;;3.57;2.77;;;6.50;99.90;;;;;;5001719;28;20181;-79
2021/12/18 09:24:56;;;;;;;3.17;2.30;;;6.50;99.90;;;;;;5003269;28;20216;-79
2021/12/18 09:27:22;;;;;;;3.17;2.77;;;6.40;99.90;;;;;;5006833;28;20208;-79
2021/12/18 09:29:49;;;;;;;3.10;2.80;;;6.50;99.90;;;;;;5009112;28;20206;-80
2021/12/18 09:32:15;;;;;;;4.37;3.33;;;6.50;99.90;;;;;;5016371;28;20238;-79
2021/12/18 09:34:40;;;;;;;4.07;3.20;;;6.50;99.90;;;;;;5013976;28;20183;-79
2021/12/18 09:37:07;;;;;;;5.17;2.80;;;6.50;99.90;;;;;;5032127;28;20179;-79
2021/12/18 09:39:40;;;;;;;3.77;3.03;;;6.60;99.90;;;;;;5001638;28;20205;-79
2021/12/18 09:42:08;;;;;;;3.17;2.80;;;6.60;99.90;;;;;;5032619;28;20179;-79
2021/12/18 09:44:34;;;;;;;4.40;3.10;;;6.60;99.90;;;;;;5007889;28;20180;-80
2021/12/18 09:47:02;;;;;;;3.90;3.20;;;6.60;99.90;;;;;;5013664;28;20225;-80
2021/12/18 09:49:38;;;;;;;3.43;3.13;;;6.70;99.90;;;;;;5008316;28;20212;-80
2021/12/18 09:52:13;;;;;;;5.10;3.17;;;6.70;99.90;;;;;;5015839;28;20189;-80
2021/12/18 09:54:38;;;;;;;5.10;3.20;;;6.70;99.90;;;;;;5017265;28;20200;-80
2021/12/18 09:57:04;;;;;;;4.87;3.30;;;6.80;99.90;;;;;;5010027;28;20185;-79
2021/12/18 09:59:30;;;;;;;4.77;3.27;;;6.80;99.90;;;;;;5012812;28;20289;-80
2021/12/18 10:01:56;;;;;;;4.10;3.10;;;6.90;99.90;;;;;;5000635;28;20598;-80
2021/12/18 10:04:31;;;;;;;4.63;3.57;;;6.90;99.90;;;;;;5007466;28;20237;-79
2021/12/18 10:07:00;;;;;;;6.10;3.77;;;6.90;99.90;;;;;;5042913;28;20210;-80
2021/12/18 10:09:26;;;;;;;6.00;3.90;;;6.90;99.90;;;;;;5008782;28;20217;-81
2021/12/18 10:11:58;;;;;;;5.67;3.53;;;6.90;99.90;;;;;;5028042;28;20181;-80
2021/12/18 10:14:41;;;;;;;4.83;3.37;;;6.90;99.90;;;;;;5001291;28;20184;-80
2021/12/18 10:17:20;;;;;;;8.07;4.50;;;7.00;99.90;;;;;;5023504;28;20174;-80
2021/12/18 10:19:47;;;;;;;6.17;3.50;;;7.00;99.90;;;;;;5013648;28;20677;-79
2021/12/18 10:22:13;;;;;;;6.13;3.70;;;7.00;99.90;;;;;;5001763;28;20187;-79
2021/12/18 10:24:41;;;;;;;5.33;3.37;;;7.10;99.90;;;;;;5011429;28;20174;-79
2021/12/18 10:27:19;;;;;;;5.63;3.67;;;7.10;99.90;;;;;;4997096;28;20202;-79
2021/12/18 10:29:46;;;;;;;6.60;3.77;;;7.10;99.90;;;;;;5021641;28;20198;-79
2021/12/18 10:32:15;;;;;;;8.37;3.43;;;7.10;99.90;;;;;;5012344;28;20216;-79
2021/12/18 10:34:42;;;;;;;7.77;4.00;;;7.10;99.90;;;;;;4971585;28;20163;-79
2021/12/18 10:37:13;;;;;;;6.63;3.87;;;7.20;99.90;;;;;;4976581;28;20542;-79
2021/12/18 10:39:56;;;;;;;9.67;4.33;;;7.10;99.90;;;;;;4975870;28;20210;-79
2021/12/18 10:42:40;;;;;;;10.77;4.40;;;7.20;99.90;;;;;;4998572;28;20190;-81
2021/12/18 10:45:24;;;;;;;10.13;4.50;;;7.20;99.90;;;;;;4991286;28;20175;-82
2021/12/18 10:48:01;;;;;;;9.10;5.03;;;7.20;99.90;;;;;;4992302;28;20198;-82
2021/12/18 10:50:36;;;;;;;12.03;5.00;;;7.20;99.90;;;;;;4983292;28;20199;-82
2021/12/18 10:53:15;;;;;;;12.47;5.37;;;7.30;99.90;;;;;;5001817;28;20748;-82
2021/12/18 10:55:59;;;;;;;9.43;4.63;;;7.30;99.90;;;;;;4996847;28;20191;-81
2021/12/18 10:58:31;;;;;;;12.83;5.20;;;7.40;99.90;;;;;;4986817;28;20172;-81
2021/12/18 11:01:05;;;;;;;14.37;6.03;;;7.40;99.90;;;;;;4970758;28;20184;-81
2021/12/18 11:03:34;;;;;;;11.70;6.13;;;7.40;99.90;;;;;;4979375;28;20219;-82
2021/12/18 11:06:14;;;;;;;14.20;5.97;;;7.50;99.90;;;;;;4979060;28;20214;-82
2021/12/18 11:08:52;;;;;;;13.13;5.70;;;7.50;99.90;;;;;;4993071;28;20199;-81
2021/12/18 11:14:03;;;;;;;17.60;6.33;;;7.60;99.90;;;;;;5005928;28;20231;-82
2021/12/18 11:16:36;;;;;;;13.70;5.97;;;7.70;99.90;;;;;;4977780;28;20191;-80
2021/12/18 11:19:08;;;;;;;21.10;6.53;;;7.70;99.90;;;;;;4981832;28;20246;-81
2021/12/18 11:21:34;;;;;;;17.53;6.90;;;7.80;99.90;;;;;;4986767;28;20182;-81
2021/12/18 11:24:07;;;;;;;16.47;6.57;;;7.80;99.90;;;;;;4989715;28;20183;-81
2021/12/18 11:26:57;;;;;;;12.37;5.83;;;7.90;99.90;;;;;;4988420;28;20195;-81
2021/12/18 11:29:44;;;;;;;14.33;6.13;;;7.90;99.90;;;;;;4984130;28;20295;-81
2021/12/18 11:32:12;;;;;;;14.93;6.23;;;7.90;99.90;;;;;;5006395;28;20187;-82
2021/12/18 11:34:39;;;;;;;17.33;5.63;;;8.00;99.90;;;;;;5026721;28;20209;-83
2021/12/18 11:37:12;;;;;;;14.93;5.93;;;8.00;99.90;;;;;;5022591;28;20182;-83
2021/12/18 11:39:39;;;;;;;18.43;5.50;;;8.10;99.90;;;;;;5026026;28;20194;-83
2021/12/18 11:42:07;;;;;;;14.53;5.17;;;8.10;99.90;;;;;;5031069;28;20229;-81
2021/12/18 11:44:41;;;;;;;12.73;4.77;;;8.10;99.90;;;;;;5031827;28;20194;-80
2021/12/18 11:47:24;;;;;;;12.47;4.50;;;8.00;99.90;;;;;;5044496;28;20273;-81
2021/12/18 11:49:50;;;;;;;18.37;4.77;;;8.10;99.90;;;;;;5046917;28;20218;-82
2021/12/18 11:52:16;;;;;;;12.80;4.37;;;8.10;99.90;;;;;;5034623;28;20175;-81
2021/12/18 11:55:00;;;;;;;17.00;5.03;;;8.10;99.90;;;;;;5028363;28;20178;-82
2021/12/18 11:57:38;;;;;;;12.40;4.07;;;8.20;99.90;;;;;;5052701;28;20187;-82
2021/12/18 12:00:32;;;;;;;13.57;4.20;;;8.20;99.90;;;;;;5035211;28;20186;-82
2021/12/18 12:03:00;;;;;;;16.20;5.17;;;8.20;99.90;;;;;;5033027;28;20254;-81
2021/12/18 12:05:39;;;;;;;16.53;4.83;;;8.20;99.90;;;;;;5031418;28;20345;-82
2021/12/18 12:08:35;;;;;;;18.47;4.70;;;8.30;99.90;;;;;;5033502;28;20197;-82
2021/12/18 12:11:26;;;;;;;14.40;5.03;;;8.30;99.90;;;;;;5054904;28;20167;-82
2021/12/18 12:14:16;;;;;;;12.40;5.17;;;8.30;99.90;;;;;;5016610;28;20246;-82
2021/12/18 12:16:45;;;;;;;16.70;5.13;;;8.40;99.90;;;;;;5038448;28;20217;-81
2021/12/18 12:19:16;;;;;;;14.30;4.90;;;8.40;99.90;;;;;;5041395;28;20198;-81
2021/12/18 12:21:51;;;;;;;12.90;5.23;;;8.40;99.90;;;;;;5021866;28;20182;-82
2021/12/18 12:24:20;;;;;;;17.67;5.27;;;8.40;99.90;;;;;;5025496;28;20178;-81
2021/12/18 12:26:47;;;;;;;15.47;5.77;;;8.40;99.90;;;;;;5022754;28;20199;-81
2021/12/18 12:29:14;;;;;;;17.47;5.73;;;8.40;99.90;;;;;;5031000;28;20203;-82
2021/12/18 12:32:01;;;;;;;16.50;5.97;;;8.50;99.90;;;;;;5021406;28;20234;-81
2021/12/18 12:34:33;;;;;;;20.50;5.83;;;8.50;99.90;;;;;;5030665;28;20233;-82
2021/12/18 12:37:38;;;;;;;16.47;6.17;;;8.50;99.90;;;;;;5030897;28;20226;-82
2021/12/18 12:40:19;;;;;;;18.60;5.70;;;8.60;99.90;;;;;;5027224;28;20187;-82
2021/12/18 12:43:19;;;;;;;19.47;5.47;;;8.60;99.90;;;;;;5018559;28;20175;-82
2021/12/18 12:45:48;;;;;;;16.47;5.23;;;8.60;99.90;;;;;;5009497;28;20200;-82
2021/12/18 12:48:47;;;;;;;14.27;6.30;;;8.60;99.90;;;;;;5019184;28;20175;-82
2021/12/18 12:51:12;;;;;;;17.23;6.30;;;8.60;99.90;;;;;;5031460;28;20274;-82
2021/12/18 12:53:50;;;;;;;17.17;6.03;;;8.70;99.90;;;;;;5015352;28;20198;-82
2021/12/18 12:56:18;;;;;;;14.10;5.07;;;8.70;99.90;;;;;;5029578;28;20182;-82
2021/12/18 12:58:44;;;;;;;16.03;5.53;;;8.70;99.90;;;;;;5017109;28;20195;-82
2021/12/18 13:01:10;;;;;;;18.53;6.00;;;8.70;99.90;;;;;;5022363;28;20183;-82
2021/12/18 13:03:48;;;;;;;15.73;5.33;;;8.80;99.90;;;;;;5011532;28;20213;-82
2021/12/18 13:06:21;;;;;;;17.80;5.57;;;8.90;99.90;;;;;;5017282;28;20210;-82
2021/12/18 13:08:48;;;;;;;17.10;5.80;;;8.80;99.90;;;;;;5001343;28;20188;-82
2021/12/18 13:11:23;;;;;;;20.20;6.10;;;8.80;99.90;;;;;;5006534;28;20186;-82
2021/12/18 13:13:51;;;;;;;17.30;5.87;;;8.80;99.90;;;;;;5046686;28;20175;-82
2021/12/18 13:16:20;;;;;;;18.30;6.03;;;8.80;99.90;;;;;;5010929;28;20198;-81
2021/12/18 13:18:51;;;;;;;20.73;7.13;;;8.80;99.90;;;;;;5011846;28;20194;-81
2021/12/18 13:21:23;;;;;;;18.77;5.80;;;8.80;99.90;;;;;;5023222;28;20194;-81
2021/12/18 13:23:51;;;;;;;19.67;5.87;;;8.70;99.90;;;;;;5026041;28;20167;-82
2021/12/18 13:26:20;;;;;;;16.20;5.33;;;8.70;99.90;;;;;;5016989;28;20228;-82
2021/12/18 13:29:02;;;;;;;16.87;5.80;;;8.70;99.90;;;;;;5016059;28;20195;-83
2021/12/18 13:31:34;;;;;;;17.13;5.60;;;8.70;99.90;;;;;;5020453;28;20186;-82
2021/12/18 13:34:03;;;;;;;15.67;5.33;;;8.60;99.90;;;;;;5031426;28;20209;-82
2021/12/18 13:36:51;;;;;;;17.47;5.10;;;8.60;99.90;;;;;;5019831;28;20182;-81
2021/12/18 13:39:19;;;;;;;21.47;5.20;;;8.70;99.90;;;;;;5023118;28;20230;-83
2021/12/18 13:42:21;;;;;;;21.97;5.57;;;8.60;99.90;;;;;;5017932;28;20178;-81
2021/12/18 13:44:57;;;;;;;16.60;4.93;;;8.60;99.90;;;;;;5009649;28;20249;-82
2021/12/18 13:47:30;;;;;;;22.30;5.90;;;8.70;99.90;;;;;;5007641;28;20249;-81